Time;durP1;ratioP1;P1;durP2;ratioP2;P2;SDS_P1;SDS_P2;PMS_P1;PMS_P2;Temp;Humidity;BMP_temperature;BMP_pressure;BME280_temperature;BME280_humidity;BME280_pressure;Samples;Min_cycle;Max_cycle;Signal;HPM_P1;HPM_P2
2022/05/21 00:01:42;;;;;;;6.10;3.93;;;13.50;99.90;;;;;;4995828;28;20425;-84
2022/05/21 00:04:08;;;;;;;6.17;3.73;;;13.50;99.90;;;;;;5012354;28;20228;-85
2022/05/21 00:06:33;;;;;;;8.07;4.53;;;13.50;99.90;;;;;;4996169;28;20661;-85
2022/05/21 00:08:59;;;;;;;5.80;3.63;;;13.50;99.90;;;;;;4996226;28;20213;-85
2022/05/21 00:11:25;;;;;;;7.67;4.63;;;13.50;99.90;;;;;;4997371;28;20201;-84
2022/05/21 00:13:51;;;;;;;7.47;4.33;;;13.50;99.90;;;;;;4997085;28;20193;-85
2022/05/21 00:16:17;;;;;;;8.37;5.27;;;13.50;99.90;;;;;;5011533;28;20170;-85
2022/05/21 00:18:43;;;;;;;6.17;4.40;;;13.40;99.90;;;;;;4995984;28;20431;-85
2022/05/21 00:21:09;;;;;;;7.50;4.83;;;13.40;99.90;;;;;;4995494;28;20420;-85
2022/05/21 00:23:35;;;;;;;6.60;4.50;;;13.50;99.90;;;;;;4994461;28;20221;-85
2022/05/21 00:26:10;;;;;;;6.50;4.80;;;13.50;99.90;;;;;;4994455;28;20196;-85
2022/05/21 00:28:38;;;;;;;6.53;4.93;;;13.40;99.90;;;;;;4995186;28;20656;-85
2022/05/21 00:31:04;;;;;;;8.30;5.10;;;13.40;99.90;;;;;;4995335;28;20452;-85
2022/05/21 00:33:31;;;;;;;8.30;5.33;;;13.40;99.90;;;;;;4994743;28;20468;-85
2022/05/21 00:35:57;;;;;;;9.30;5.83;;;13.40;99.90;;;;;;4994513;28;20453;-84
2022/05/21 00:38:22;;;;;;;9.37;6.47;;;13.40;99.90;;;;;;4994725;28;20421;-86
2022/05/21 00:40:49;;;;;;;8.80;5.27;;;13.40;99.90;;;;;;4994722;28;20424;-85
2022/05/21 00:43:37;;;;;;;9.20;5.33;;;13.40;99.90;;;;;;4995403;28;20247;-85
2022/05/21 00:46:04;;;;;;;9.30;5.97;;;13.40;99.90;;;;;;4994446;28;20452;-85
2022/05/21 00:48:30;;;;;;;7.47;5.60;;;13.40;99.90;;;;;;4995371;28;20480;-86
2022/05/21 00:50:56;;;;;;;10.50;6.10;;;13.30;99.90;;;;;;4994564;28;20429;-85
2022/05/21 00:53:22;;;;;;;7.00;5.50;;;13.40;99.90;;;;;;4995310;28;20232;-85
2022/05/21 00:55:50;;;;;;;8.63;5.80;;;13.30;99.90;;;;;;4994633;28;20417;-85
2022/05/21 01:01:05;;;;;;;7.73;5.50;;;13.30;99.90;;;;;;5011739;28;20424;-85
2022/05/21 01:03:31;;;;;;;9.07;6.47;;;13.40;99.90;;;;;;4995292;28;20496;-84
2022/05/21 01:05:58;;;;;;;10.13;6.20;;;13.40;99.90;;;;;;4994785;28;20429;-85
2022/05/21 01:08:24;;;;;;;7.30;5.37;;;13.40;99.90;;;;;;5012055;28;20206;-85
2022/05/21 01:10:54;;;;;;;9.70;6.20;;;13.30;99.90;;;;;;5012596;28;20424;-85
2022/05/21 01:13:24;;;;;;;10.00;5.33;;;13.40;99.90;;;;;;4994681;28;20224;-85
2022/05/21 01:15:53;;;;;;;7.70;5.40;;;13.30;99.90;;;;;;4994771;28;20417;-85
2022/05/21 01:18:19;;;;;;;9.13;6.40;;;13.30;99.90;;;;;;4993947;28;20429;-85
2022/05/21 01:20:48;;;;;;;10.87;6.80;;;13.30;99.90;;;;;;4994472;28;20424;-85
2022/05/21 01:23:15;;;;;;;10.30;6.73;;;13.30;99.90;;;;;;4994430;28;20539;-85
2022/05/21 01:25:43;;;;;;;8.97;6.33;;;13.30;99.90;;;;;;4993304;28;20435;-85
2022/05/21 01:28:14;;;;;;;8.90;5.43;;;13.30;99.90;;;;;;4992840;28;20492;-85
2022/05/21 01:30:45;;;;;;;12.00;6.20;;;13.20;99.90;;;;;;4991957;28;20429;-85
2022/05/21 01:33:14;;;;;;;8.67;5.60;;;13.30;99.90;;;;;;4992262;28;20457;-85
2022/05/21 01:35:42;;;;;;;9.67;5.70;;;13.20;99.90;;;;;;4990928;28;20421;-85
2022/05/21 01:38:09;;;;;;;9.20;5.73;;;13.10;99.90;;;;;;4991055;28;20429;-85
2022/05/21 01:40:35;;;;;;;11.50;6.40;;;13.10;99.90;;;;;;4991137;28;20428;-85
2022/05/21 01:45:45;;;;;;;8.63;6.03;;;13.00;99.90;;;;;;5006669;28;20401;-85
2022/05/21 01:48:11;;;;;;;9.73;6.10;;;12.90;99.90;;;;;;4986973;28;20882;-86
2022/05/21 01:50:38;;;;;;;8.90;5.57;;;12.90;99.90;;;;;;4982553;28;20463;-85
2022/05/21 01:53:04;;;;;;;11.03;6.17;;;12.90;99.90;;;;;;4986387;28;20198;-85
2022/05/21 01:55:31;;;;;;;8.87;5.70;;;12.90;99.90;;;;;;4988724;28;20425;-85
2022/05/21 01:57:56;;;;;;;11.17;6.37;;;12.90;99.90;;;;;;4987828;28;20424;-85
2022/05/21 02:00:22;;;;;;;10.10;6.47;;;12.80;99.90;;;;;;4988839;28;20429;-86
2022/05/21 02:02:48;;;;;;;9.40;5.70;;;12.80;99.90;;;;;;4987260;28;20201;-85
2022/05/21 02:05:14;;;;;;;8.77;5.00;;;12.80;99.90;;;;;;4988730;28;20429;-85
2022/05/21 02:07:40;;;;;;;8.47;5.63;;;12.80;99.90;;;;;;5006015;28;20205;-85
2022/05/21 02:10:06;;;;;;;8.17;5.20;;;12.80;99.90;;;;;;4987759;28;20456;-85
2022/05/21 02:12:32;;;;;;;9.80;5.30;;;12.80;99.90;;;;;;4987683;28;20828;-85
2022/05/21 02:14:58;;;;;;;11.63;4.97;;;12.80;99.90;;;;;;4988699;28;20456;-84
2022/05/21 02:17:24;;;;;;;7.90;4.27;;;12.80;99.90;;;;;;4990198;28;20425;-85
2022/05/21 02:19:50;;;;;;;6.60;4.90;;;12.80;99.90;;;;;;4990755;28;20197;-85
2022/05/21 02:22:16;;;;;;;9.47;4.77;;;12.90;99.90;;;;;;4989914;28;20445;-86
2022/05/21 02:24:42;;;;;;;6.43;3.60;;;12.90;99.90;;;;;;4990227;28;20520;-86
2022/05/21 02:27:12;;;;;;;6.13;4.00;;;13.00;99.90;;;;;;5005769;28;20229;-85
2022/05/21 02:29:39;;;;;;;7.90;3.60;;;13.10;99.90;;;;;;4988964;28;20425;-85
2022/05/21 02:32:05;;;;;;;5.20;3.40;;;13.20;99.90;;;;;;4988644;28;20425;-85
2022/05/21 02:34:31;;;;;;;5.60;3.00;;;13.10;99.90;;;;;;4988438;28;20432;-86
2022/05/21 02:39:41;;;;;;;6.97;2.93;;;13.00;99.90;;;;;;5008169;28;20471;-85
2022/05/21 02:44:52;;;;;;;6.20;3.30;;;13.00;99.90;;;;;;5005055;28;20168;-85
2022/05/21 02:47:18;;;;;;;5.20;2.93;;;13.00;99.90;;;;;;4986267;28;20461;-85
2022/05/21 02:49:43;;;;;;;5.63;2.70;;;12.90;99.90;;;;;;4988481;28;20417;-85
2022/05/21 02:52:09;;;;;;;5.53;2.90;;;12.90;99.90;;;;;;4989346;28;20206;-85
2022/05/21 02:54:34;;;;;;;4.03;2.30;;;12.90;99.90;;;;;;4989542;28;20188;-85
2022/05/21 02:57:00;;;;;;;6.73;2.40;;;12.80;99.90;;;;;;4989964;28;20201;-85
2022/05/21 02:59:28;;;;;;;6.07;2.63;;;12.80;99.90;;;;;;4989354;28;20642;-85
2022/05/21 03:01:54;;;;;;;3.80;2.03;;;12.90;99.90;;;;;;4988384;28;20181;-86
2022/05/21 03:04:20;;;;;;;5.37;2.67;;;12.90;99.90;;;;;;4988987;28;20431;-86
2022/05/21 03:06:45;;;;;;;3.03;2.00;;;13.00;99.90;;;;;;4989420;28;20182;-86
2022/05/21 03:11:55;;;;;;;4.50;2.17;;;13.00;99.90;;;;;;5005031;28;20172;-86
2022/05/21 03:14:21;;;;;;;3.33;1.87;;;13.10;99.90;;;;;;4988085;28;20492;-86
2022/05/21 03:16:46;;;;;;;7.90;2.13;;;13.10;99.90;;;;;;4986636;28;20196;-86
2022/05/21 03:19:12;;;;;;;8.27;2.60;;;13.20;99.90;;;;;;5004552;28;20193;-86
2022/05/21 03:21:38;;;;;;;4.07;1.90;;;13.30;99.90;;;;;;5005198;28;20186;-85
2022/05/21 03:24:04;;;;;;;4.97;2.13;;;13.30;99.90;;;;;;4986928;28;20217;-85
2022/05/21 03:26:31;;;;;;;4.10;1.90;;;13.30;99.90;;;;;;4985037;28;20496;-85
2022/05/21 03:28:57;;;;;;;3.30;2.00;;;13.40;99.90;;;;;;4987162;28;20471;-86
2022/05/21 03:31:22;;;;;;;3.30;1.60;;;13.40;99.90;;;;;;4982358;28;20485;-86
2022/05/21 03:33:48;;;;;;;6.10;2.10;;;13.40;99.90;;;;;;5011652;23;20260;-78
2022/05/21 03:36:14;;;;;;;7.37;2.33;;;13.50;99.90;;;;;;4996419;28;20180;-78
2022/05/21 03:38:40;;;;;;;3.73;1.93;;;13.50;99.90;;;;;;4996781;28;20184;-79
2022/05/21 03:41:06;;;;;;;3.90;1.63;;;13.50;99.90;;;;;;4996972;28;20420;-78
2022/05/21 03:43:32;;;;;;;4.33;1.70;;;13.50;99.90;;;;;;4996987;28;20272;-78
2022/05/21 03:45:59;;;;;;;3.23;1.53;;;13.60;99.90;;;;;;4996899;28;20507;-79
2022/05/21 03:48:25;;;;;;;3.70;2.00;;;13.60;99.90;;;;;;5000060;28;20660;-79
2022/05/21 03:50:50;;;;;;;3.17;1.37;;;13.60;99.90;;;;;;4997965;28;20443;-79
2022/05/21 03:53:16;;;;;;;5.70;2.10;;;13.60;99.90;;;;;;4997567;28;20177;-79
2022/05/21 03:55:44;;;;;;;4.13;1.80;;;13.70;99.90;;;;;;4996716;28;20181;-80
2022/05/21 03:58:10;;;;;;;4.00;1.60;;;13.70;99.90;;;;;;4997422;28;20466;-78
2022/05/21 04:00:38;;;;;;;3.90;1.93;;;13.80;99.90;;;;;;4997045;28;20419;-79
2022/05/21 04:03:04;;;;;;;3.13;1.50;;;13.80;99.90;;;;;;4997391;28;20439;-78
2022/05/21 04:05:30;;;;;;;3.00;1.47;;;13.80;99.90;;;;;;4996700;28;20415;-79
2022/05/21 04:07:56;;;;;;;4.33;1.47;;;13.80;99.90;;;;;;4996823;28;21001;-79
2022/05/21 04:10:23;;;;;;;3.63;1.50;;;13.80;99.90;;;;;;4980700;28;20452;-79
2022/05/21 04:12:49;;;;;;;2.70;1.80;;;13.90;99.90;;;;;;4996640;28;20416;-79
2022/05/21 04:15:15;;;;;;;2.90;1.30;;;13.80;99.90;;;;;;4996104;28;20937;-79
2022/05/21 04:17:41;;;;;;;4.10;1.67;;;13.80;99.90;;;;;;4996547;28;20208;-78
2022/05/21 04:20:10;;;;;;;2.57;1.30;;;13.80;99.90;;;;;;4996255;28;20608;-79
2022/05/21 04:22:36;;;;;;;4.80;1.20;;;13.90;99.90;;;;;;4996361;28;20850;-79
2022/05/21 04:25:06;;;;;;;3.80;1.50;;;13.90;99.90;;;;;;4996077;28;20435;-78
2022/05/21 04:27:34;;;;;;;2.80;1.53;;;13.90;99.90;;;;;;4995683;28;20467;-78
2022/05/21 04:30:00;;;;;;;6.30;1.73;;;13.90;99.90;;;;;;4995605;28;20455;-79
2022/05/21 04:32:26;;;;;;;5.00;1.53;;;13.90;99.90;;;;;;4995669;28;20435;-78
2022/05/21 04:34:52;;;;;;;4.10;1.60;;;14.00;99.90;;;;;;4995443;28;20443;-78
2022/05/21 04:37:19;;;;;;;3.37;1.50;;;13.90;99.90;;;;;;4995615;28;20204;-79
2022/05/21 04:39:45;;;;;;;3.70;1.50;;;13.80;99.90;;;;;;4995235;28;20185;-77
2022/05/21 04:42:11;;;;;;;2.77;1.30;;;13.90;99.90;;;;;;4995187;28;21069;-77
2022/05/21 04:44:37;;;;;;;3.63;1.60;;;13.90;99.90;;;;;;4995493;28;20189;-79
2022/05/21 04:47:04;;;;;;;4.37;1.63;;;14.00;99.90;;;;;;4994587;28;20295;-77
2022/05/21 04:49:30;;;;;;;3.50;1.90;;;14.10;99.90;;;;;;4995221;28;20435;-79
2022/05/21 04:51:56;;;;;;;2.97;1.50;;;14.10;99.90;;;;;;4995273;28;20424;-78
2022/05/21 04:54:22;;;;;;;3.40;1.57;;;14.10;99.90;;;;;;4995150;28;20424;-78
2022/05/21 04:56:47;;;;;;;3.00;1.33;;;14.10;99.90;;;;;;4994599;28;20291;-78
2022/05/21 04:59:13;;;;;;;3.70;2.53;;;14.10;99.90;;;;;;4995240;28;20217;-78
2022/05/21 05:01:40;;;;;;;2.80;1.50;;;14.20;99.90;;;;;;4994843;28;20568;-78
2022/05/21 05:04:07;;;;;;;6.43;1.80;;;14.20;99.90;;;;;;4994752;28;20255;-78
2022/05/21 05:06:33;;;;;;;3.23;1.60;;;14.30;99.90;;;;;;4994211;28;20455;-78
2022/05/21 05:08:59;;;;;;;4.53;1.67;;;14.40;99.90;;;;;;4994596;28;20468;-78
2022/05/21 05:11:25;;;;;;;4.17;2.10;;;14.40;99.90;;;;;;4994513;28;20434;-77
2022/05/21 05:13:51;;;;;;;3.17;1.50;;;14.40;99.90;;;;;;4994941;28;20189;-78
2022/05/21 05:16:16;;;;;;;3.53;1.60;;;14.50;99.90;;;;;;4994435;28;20903;-79
2022/05/21 05:18:42;;;;;;;4.30;1.90;;;14.60;99.90;;;;;;4994554;28;20247;-78
2022/05/21 05:21:08;;;;;;;5.87;2.30;;;14.60;99.90;;;;;;4994781;28;20755;-78
2022/05/21 05:23:34;;;;;;;5.10;2.47;;;14.60;99.90;;;;;;4994474;28;20275;-77
2022/05/21 05:26:00;;;;;;;3.03;2.10;;;14.50;99.90;;;;;;4995752;28;20195;-78
2022/05/21 05:28:27;;;;;;;3.60;2.07;;;14.50;99.90;;;;;;4998371;28;20533;-78
2022/05/21 05:30:53;;;;;;;5.03;2.57;;;14.50;99.90;;;;;;4998983;28;20189;-78
2022/05/21 05:33:21;;;;;;;3.80;2.17;;;14.50;99.90;;;;;;4998780;28;20799;-79
2022/05/21 05:35:48;;;;;;;4.47;2.37;;;14.40;99.90;;;;;;4998000;28;20427;-80
2022/05/21 05:38:15;;;;;;;4.40;2.23;;;14.40;99.90;;;;;;4998557;28;20447;-77
2022/05/21 05:40:45;;;;;;;3.97;2.33;;;14.40;99.90;;;;;;4999470;28;20937;-78
2022/05/21 05:43:12;;;;;;;4.73;2.57;;;14.50;99.90;;;;;;4998700;28;20442;-78
2022/05/21 05:45:38;;;;;;;3.63;2.37;;;14.60;99.90;;;;;;4998443;28;20416;-80
2022/05/21 05:48:04;;;;;;;9.80;3.03;;;14.60;99.90;;;;;;4998413;28;20916;-78
2022/05/21 05:50:30;;;;;;;3.47;2.37;;;14.60;99.90;;;;;;4998724;28;20506;-79
2022/05/21 05:53:03;;;;;;;6.00;3.00;;;14.60;99.90;;;;;;4999547;28;20547;-79
2022/05/21 05:55:31;;;;;;;5.10;2.63;;;14.70;99.90;;;;;;4999595;28;20628;-79
2022/05/21 05:57:57;;;;;;;5.40;2.97;;;14.60;99.90;;;;;;4999702;28;20451;-79
2022/05/21 06:00:24;;;;;;;7.53;2.80;;;14.60;99.90;;;;;;4999445;28;20423;-81
2022/05/21 06:02:59;;;;;;;6.50;2.67;;;14.50;99.90;;;;;;4998855;28;20432;-79
2022/05/21 06:05:32;;;;;;;4.87;2.57;;;14.50;99.90;;;;;;4998980;28;20419;-79
2022/05/21 06:08:02;;;;;;;5.10;2.70;;;14.50;99.90;;;;;;4998640;28;20483;-79
2022/05/21 06:10:37;;;;;;;5.40;3.10;;;14.50;99.90;;;;;;4998982;28;20431;-79
2022/05/21 06:13:03;;;;;;;5.13;2.57;;;14.60;99.90;;;;;;4998765;28;20451;-79
2022/05/21 06:15:30;;;;;;;5.10;2.23;;;14.60;99.90;;;;;;4999005;28;20423;-79
2022/05/21 06:17:56;;;;;;;7.60;2.77;;;14.70;99.90;;;;;;4998384;28;20456;-80
2022/05/21 06:20:25;;;;;;;5.10;3.23;;;14.70;99.90;;;;;;4998862;28;20431;-78
2022/05/21 06:22:51;;;;;;;4.23;2.60;;;14.70;99.90;;;;;;4998415;28;20519;-79
2022/05/21 06:25:20;;;;;;;5.13;3.00;;;14.60;99.90;;;;;;4998680;28;20439;-80
2022/05/21 06:27:48;;;;;;;9.83;3.07;;;14.60;99.90;;;;;;4998572;28;20993;-81
2022/05/21 06:30:16;;;;;;;3.83;2.80;;;14.60;99.90;;;;;;5003348;28;20416;-78
2022/05/21 06:32:42;;;;;;;5.00;2.60;;;14.60;99.90;;;;;;5003346;28;20450;-79
2022/05/21 06:35:09;;;;;;;6.50;3.10;;;14.60;99.90;;;;;;4997708;28;20447;-78
2022/05/21 06:37:36;;;;;;;4.67;2.97;;;14.50;99.90;;;;;;4996071;28;20476;-78
2022/05/21 06:40:03;;;;;;;4.70;3.13;;;14.60;99.90;;;;;;4997889;28;20432;-79
2022/05/21 06:42:29;;;;;;;5.00;2.47;;;14.60;99.90;;;;;;4998182;28;20424;-80
2022/05/21 06:44:55;;;;;;;6.37;3.30;;;14.70;99.90;;;;;;4997516;28;20814;-80
2022/05/21 06:47:23;;;;;;;4.13;2.47;;;14.90;99.90;;;;;;4998256;28;20467;-81
2022/05/21 06:49:54;;;;;;;4.90;2.80;;;15.00;99.90;;;;;;4997655;28;20188;-82
2022/05/21 06:52:20;;;;;;;7.13;3.00;;;15.00;99.90;;;;;;4998052;28;20424;-79
2022/05/21 06:54:46;;;;;;;5.43;3.10;;;15.00;99.90;;;;;;4997666;28;20423;-79
2022/05/21 06:57:13;;;;;;;7.53;2.93;;;15.00;99.90;;;;;;4997721;28;20577;-79
2022/05/21 06:59:39;;;;;;;5.23;3.20;;;15.00;99.90;;;;;;4998162;28;20181;-80
2022/05/21 07:02:05;;;;;;;6.53;2.90;;;15.00;99.90;;;;;;4997976;28;20467;-80
2022/05/21 07:07:35;;;;;;;4.80;2.83;;;15.20;99.90;;;;;;5015482;28;20278;-80
2022/05/21 07:10:07;;;;;;;8.30;3.13;;;15.10;99.90;;;;;;4997595;28;20551;-80
2022/05/21 07:12:34;;;;;;;7.77;3.07;;;15.10;99.90;;;;;;4997641;28;20423;-80
2022/05/21 07:15:02;;;;;;;5.87;3.27;;;15.00;99.90;;;;;;4997469;28;20420;-81
2022/05/21 07:17:27;;;;;;;5.93;3.50;;;15.10;99.90;;;;;;4997027;28;20446;-80
2022/05/21 07:19:53;;;;;;;4.87;3.10;;;15.20;99.90;;;;;;4996818;28;20805;-81
2022/05/21 07:22:22;;;;;;;8.20;3.33;;;15.30;99.90;;;;;;4997269;28;20192;-80
2022/05/21 07:24:48;;;;;;;8.80;3.60;;;15.20;99.90;;;;;;4997378;28;20181;-80
2022/05/21 07:27:14;;;;;;;5.70;3.10;;;15.40;99.90;;;;;;4997061;28;20452;-80
2022/05/21 07:29:42;;;;;;;5.07;3.10;;;15.50;99.90;;;;;;4996672;28;20431;-80
2022/05/21 07:32:20;;;;;;;9.47;4.37;;;15.60;99.90;;;;;;4996378;28;20428;-80
2022/05/21 07:34:46;;;;;;;5.03;3.30;;;15.70;99.90;;;;;;4996775;28;20530;-79
2022/05/21 07:37:12;;;;;;;5.80;3.07;;;15.80;99.90;;;;;;4995724;28;20440;-80
2022/05/21 07:39:38;;;;;;;6.90;2.73;;;15.80;99.90;;;;;;4995608;28;20424;-81
2022/05/21 07:42:05;;;;;;;5.93;3.03;;;15.90;99.90;;;;;;4996880;28;20424;-80
2022/05/21 07:44:30;;;;;;;5.13;2.67;;;16.10;99.90;;;;;;4996157;28;20455;-80
2022/05/21 07:46:57;;;;;;;6.43;3.10;;;16.10;99.90;;;;;;4995682;28;20844;-80
2022/05/21 07:49:23;;;;;;;4.13;2.80;;;16.10;99.90;;;;;;4996010;28;20342;-80
2022/05/21 07:51:49;;;;;;;4.20;3.00;;;16.20;99.90;;;;;;4995571;28;20424;-80
2022/05/21 07:54:15;;;;;;;7.30;3.30;;;16.20;99.90;;;;;;4995419;28;20428;-80
2022/05/21 07:56:41;;;;;;;6.33;3.40;;;16.30;99.90;;;;;;4995410;28;20963;-80
2022/05/21 07:59:09;;;;;;;6.83;3.20;;;16.40;99.90;;;;;;4995876;28;20189;-81
2022/05/21 08:01:35;;;;;;;5.17;2.90;;;16.40;99.90;;;;;;4995638;28;20181;-78
2022/05/21 08:04:01;;;;;;;6.40;3.00;;;16.30;99.90;;;;;;4995185;28;20428;-80
2022/05/21 08:06:27;;;;;;;6.50;3.27;;;16.30;99.90;;;;;;4995480;28;20184;-80
2022/05/21 08:08:54;;;;;;;7.73;3.30;;;16.30;99.90;;;;;;4995668;28;20273;-79
2022/05/21 08:11:21;;;;;;;5.57;2.90;;;16.40;99.90;;;;;;4995476;28;20262;-81
2022/05/21 08:13:47;;;;;;;4.87;3.03;;;16.60;99.90;;;;;;4995513;28;20424;-79
2022/05/21 08:16:14;;;;;;;6.20;3.10;;;16.80;99.90;;;;;;4996179;28;20962;-80
2022/05/21 08:18:41;;;;;;;5.00;3.00;;;17.40;99.90;;;;;;4996506;28;20436;-80
2022/05/21 08:21:07;;;;;;;10.27;3.50;;;18.40;99.90;;;;;;4996130;28;20420;-79
2022/05/21 08:29:02;;;;;;;6.13;3.30;;;20.40;99.90;;;;;;5012832;28;20466;-79
2022/05/21 08:31:28;;;;;;;6.10;3.37;;;21.10;99.90;;;;;;4995261;28;20946;-79
2022/05/21 08:33:54;;;;;;;5.87;3.70;;;20.20;99.90;;;;;;4995109;28;20435;-80
2022/05/21 08:36:20;;;;;;;7.73;2.70;;;19.70;99.90;;;;;;4995122;28;20177;-80
2022/05/21 08:38:46;;;;;;;4.43;2.60;;;20.40;99.90;;;;;;4994929;28;20276;-80
2022/05/21 08:41:25;;;;;;;4.40;2.30;;;20.50;99.90;;;;;;4996203;28;20188;-81
2022/05/21 08:44:03;;;;;;;4.43;2.60;;;21.30;99.90;;;;;;4996495;28;20424;-81
2022/05/21 08:46:38;;;;;;;4.20;2.50;;;20.90;99.90;;;;;;4995970;28;20434;-81
2022/05/21 08:49:19;;;;;;;7.10;2.50;;;20.90;99.90;;;;;;4996374;28;20549;-82
2022/05/21 08:51:52;;;;;;;3.30;2.10;;;21.40;99.90;;;;;;4996519;28;20431;-82
2022/05/21 08:54:23;;;;;;;5.50;2.00;;;21.60;99.90;;;;;;4995647;28;20520;-81
2022/05/21 08:56:52;;;;;;;7.57;2.50;;;22.00;99.90;;;;;;4996016;28;20444;-80
2022/05/21 08:59:21;;;;;;;5.20;2.60;;;23.40;99.90;;;;;;4995933;28;20431;-82
2022/05/21 09:01:47;;;;;;;3.87;2.50;;;23.80;99.90;;;;;;4995364;28;20417;-81
2022/05/21 09:04:14;;;;;;;7.17;3.13;;;23.10;99.90;;;;;;4995478;28;20794;-81
2022/05/21 09:06:52;;;;;;;3.87;2.30;;;22.10;99.90;;;;;;4995425;28;20649;-79
2022/05/21 09:09:30;;;;;;;7.00;2.90;;;22.20;99.90;;;;;;4995310;28;20597;-81
2022/05/21 09:12:09;;;;;;;6.10;2.63;;;22.30;99.90;;;;;;4995707;28;20474;-81
2022/05/21 09:14:42;;;;;;;6.07;3.23;;;21.70;99.90;;;;;;4995914;28;20419;-81
2022/05/21 09:17:15;;;;;;;4.53;2.50;;;21.20;99.90;;;;;;4995077;28;20535;-81
2022/05/21 09:19:47;;;;;;;4.43;2.47;;;20.60;99.90;;;;;;4994872;28;20424;-82
2022/05/21 09:22:15;;;;;;;4.63;2.50;;;20.40;99.90;;;;;;4995706;28;20428;-81
2022/05/21 09:25:01;;;;;;;5.03;2.63;;;20.10;99.90;;;;;;4995565;28;20428;-81
2022/05/21 09:27:42;;;;;;;4.70;2.13;;;20.50;99.90;;;;;;4995268;28;20502;-80
2022/05/21 09:30:25;;;;;;;3.90;2.60;;;21.80;99.90;;;;;;4995070;28;20456;-80
2022/05/21 09:33:00;;;;;;;8.10;3.00;;;23.10;99.90;;;;;;4995546;28;20799;-81
2022/05/21 09:35:29;;;;;;;4.43;2.67;;;24.30;99.90;;;;;;5009396;23;20499;-81
2022/05/21 09:37:56;;;;;;;8.27;2.70;;;25.40;99.90;;;;;;4994650;28;20464;-81
2022/05/21 09:40:35;;;;;;;4.60;1.93;;;25.50;98.80;;;;;;4994518;28;20470;-82
2022/05/21 09:46:26;;;;;;;7.50;2.80;;;26.40;93.60;;;;;;5012259;28;20489;-81
2022/05/21 09:48:54;;;;;;;5.60;2.80;;;25.60;94.50;;;;;;4994659;28;20471;-82
2022/05/21 09:51:27;;;;;;;3.53;2.43;;;26.30;94.30;;;;;;4994881;28;20416;-79
2022/05/21 09:53:53;;;;;;;4.10;2.53;;;27.80;90.60;;;;;;4994669;28;20419;-79
2022/05/21 09:56:22;;;;;;;5.80;2.37;;;28.90;83.70;;;;;;4994329;28;20470;-80
2022/05/21 09:58:51;;;;;;;5.40;2.30;;;28.70;76.20;;;;;;4994910;28;20426;-79
2022/05/21 10:01:36;;;;;;;5.53;2.00;;;28.70;78.20;;;;;;4994934;28;20470;-79
2022/05/21 10:04:12;;;;;;;4.67;2.20;;;29.00;68.10;;;;;;4994337;28;20519;-78
2022/05/21 10:06:43;;;;;;;6.90;2.07;;;27.40;68.20;;;;;;4994994;28;20439;-77
2022/05/21 10:12:20;;;;;;;3.70;2.37;;;24.30;79.40;;;;;;5012705;28;20411;-75
2022/05/21 10:14:51;;;;;;;4.53;2.10;;;23.70;89.50;;;;;;4997848;28;20422;-77
2022/05/21 10:17:42;;;;;;;4.07;2.07;;;23.60;92.80;;;;;;4997535;28;20444;-75
2022/05/21 10:20:15;;;;;;;4.87;2.33;;;22.80;94.90;;;;;;4982721;28;20570;-75
2022/05/21 10:23:00;;;;;;;3.83;2.70;;;22.50;95.70;;;;;;4997016;28;20426;-75
2022/05/21 10:25:44;;;;;;;4.00;2.40;;;22.60;97.80;;;;;;4981269;28;20423;-74
2022/05/21 10:28:31;;;;;;;3.80;2.40;;;22.70;97.80;;;;;;4996985;28;21063;-75
2022/05/21 10:31:45;;;;;;;5.93;3.23;;;21.90;97.10;;;;;;4996630;28;20796;-74
2022/05/21 10:34:17;;;;;;;3.83;2.47;;;21.40;99.90;;;;;;4986354;28;20850;-74
2022/05/21 10:37:02;;;;;;;7.77;2.80;;;21.50;99.90;;;;;;4996060;28;20501;-75
2022/05/21 10:39:42;;;;;;;4.73;2.60;;;21.70;99.90;;;;;;4996767;28;20427;-75
2022/05/21 10:42:35;;;;;;;5.00;3.00;;;21.90;99.90;;;;;;4996392;28;20424;-75
2022/05/21 10:45:17;;;;;;;4.57;2.50;;;21.80;99.90;;;;;;4996333;28;20428;-74
2022/05/21 10:48:04;;;;;;;5.63;2.47;;;22.00;99.90;;;;;;4996217;28;20464;-74
2022/05/21 10:51:00;;;;;;;5.47;2.97;;;22.30;99.90;;;;;;4989527;28;20906;-75
2022/05/21 10:53:46;;;;;;;4.00;2.53;;;22.10;99.90;;;;;;4954225;28;21051;-75
2022/05/21 10:56:12;;;;;;;6.87;2.73;;;21.80;99.90;;;;;;4996096;28;20439;-75
2022/05/21 10:58:59;;;;;;;4.13;2.50;;;21.30;99.90;;;;;;4994920;28;21002;-75
2022/05/21 11:01:53;;;;;;;4.60;2.20;;;20.90;99.90;;;;;;4988708;28;20353;-74
2022/05/21 11:04:37;;;;;;;8.27;3.83;;;20.60;99.90;;;;;;4996175;28;20420;-75
2022/05/21 11:07:18;;;;;;;5.97;2.60;;;20.40;99.90;;;;;;4994717;28;20457;-75
2022/05/21 11:10:00;;;;;;;7.17;3.70;;;20.30;99.90;;;;;;4981129;28;20440;-75
2022/05/21 11:12:45;;;;;;;6.30;3.13;;;20.20;99.90;;;;;;4996099;28;20424;-75
2022/05/21 11:15:26;;;;;;;7.50;3.20;;;20.20;99.90;;;;;;4991248;28;20437;-74
2022/05/21 11:17:57;;;;;;;3.67;2.70;;;20.30;99.90;;;;;;4981954;28;20462;-75
2022/05/21 11:20:33;;;;;;;4.87;2.43;;;20.40;99.90;;;;;;4995889;28;20431;-75
2022/05/21 11:23:18;;;;;;;4.47;2.53;;;20.60;99.90;;;;;;4996337;28;20431;-75
2022/05/21 11:25:50;;;;;;;4.23;2.47;;;20.80;99.90;;;;;;4987919;28;20460;-75
2022/05/21 11:28:34;;;;;;;4.53;2.20;;;20.90;99.90;;;;;;4995781;28;20467;-74
2022/05/21 11:31:07;;;;;;;3.60;2.37;;;21.20;99.90;;;;;;4995762;28;20454;-75
2022/05/21 11:39:12;;;;;;;5.53;2.80;;;22.30;99.90;;;;;;5013569;28;20845;-75
2022/05/21 11:42:18;;;;;;;5.27;2.40;;;22.30;99.90;;;;;;4995621;28;20431;-75
2022/05/21 11:44:59;;;;;;;4.07;2.23;;;22.50;99.90;;;;;;4917602;29;20431;-75
2022/05/21 11:47:33;;;;;;;4.00;2.10;;;22.50;99.90;;;;;;4917004;29;21063;-75
2022/05/21 11:50:06;;;;;;;4.40;2.20;;;22.20;99.90;;;;;;4967828;28;20454;-75
2022/05/21 11:52:34;;;;;;;4.10;2.40;;;22.10;99.90;;;;;;4995459;28;20459;-75
2022/05/21 11:55:25;;;;;;;4.60;2.53;;;22.00;99.90;;;;;;4995556;28;20444;-75
2022/05/21 11:58:01;;;;;;;3.73;2.30;;;22.00;99.90;;;;;;4995318;28;20817;-75
2022/05/21 12:00:27;;;;;;;7.40;2.63;;;22.00;99.90;;;;;;4994901;28;20432;-75
2022/05/21 12:02:53;;;;;;;3.33;2.47;;;22.00;99.90;;;;;;4995221;28;20432;-74
2022/05/21 12:05:49;;;;;;;5.77;2.00;;;22.20;99.90;;;;;;4995392;28;20239;-74
2022/05/21 12:08:14;;;;;;;6.93;2.30;;;22.20;99.90;;;;;;4995364;28;20212;-75
2022/05/21 12:10:57;;;;;;;5.20;2.70;;;22.10;99.90;;;;;;4999019;28;20427;-78
2022/05/21 12:13:35;;;;;;;5.07;2.80;;;22.30;99.90;;;;;;5001063;28;20184;-78
2022/05/21 12:16:16;;;;;;;3.80;2.50;;;22.30;99.90;;;;;;5001244;28;20427;-78
2022/05/21 12:18:47;;;;;;;4.70;2.20;;;22.30;99.90;;;;;;4999375;28;20416;-77
2022/05/21 12:21:29;;;;;;;6.17;2.37;;;22.40;99.90;;;;;;4999974;28;20474;-78
2022/05/21 12:23:55;;;;;;;3.13;2.03;;;22.40;99.30;;;;;;4999134;28;20427;-79
2022/05/21 12:26:24;;;;;;;3.93;1.80;;;22.50;99.60;;;;;;4996860;28;20432;-75
2022/05/21 12:28:56;;;;;;;9.83;2.73;;;22.30;99.90;;;;;;4994899;28;20554;-76
2022/05/21 12:31:25;;;;;;;3.70;2.70;;;22.40;99.20;;;;;;4993173;28;20436;-75
2022/05/21 12:34:23;;;;;;;4.63;1.83;;;22.50;99.90;;;;;;4987680;28;20423;-75
2022/05/21 12:37:04;;;;;;;3.87;2.00;;;22.60;99.90;;;;;;4994726;28;20467;-71
2022/05/21 12:40:12;;;;;;;4.23;2.10;;;22.70;99.30;;;;;;4994585;28;20431;-71
2022/05/21 12:42:52;;;;;;;5.78;3.08;;;22.70;99.00;;;;;;4994314;28;20863;-71
2022/05/21 12:45:43;;;;;;;3.70;2.07;;;22.70;99.20;;;;;;4994472;28;20172;-72
2022/05/21 12:48:12;;;;;;;4.30;2.40;;;22.90;99.90;;;;;;4994081;28;21072;-71
2022/05/21 12:50:54;;;;;;;4.43;2.40;;;22.90;99.90;;;;;;4993359;28;20456;-72
2022/05/21 12:53:24;;;;;;;5.03;2.27;;;23.00;99.90;;;;;;4994403;28;20486;-71
2022/05/21 12:56:17;;;;;;;3.60;2.23;;;23.00;99.90;;;;;;4995397;28;20447;-73
2022/05/21 12:58:43;;;;;;;3.97;2.17;;;23.10;99.90;;;;;;4994699;28;20478;-72
2022/05/21 13:01:23;;;;;;;3.97;2.60;;;23.30;99.60;;;;;;4994273;28;20947;-71
2022/05/21 13:03:49;;;;;;;5.63;2.30;;;23.40;97.30;;;;;;4994509;28;20267;-71
2022/05/21 13:06:24;;;;;;;4.90;2.13;;;23.40;95.20;;;;;;4993854;28;20523;-71
2022/05/21 13:08:51;;;;;;;5.20;2.07;;;23.70;97.20;;;;;;4994332;28;20211;-71
2022/05/21 13:11:31;;;;;;;2.70;1.90;;;23.80;92.90;;;;;;4994269;28;21146;-71
2022/05/21 13:14:07;;;;;;;4.50;2.20;;;23.60;92.50;;;;;;4993947;28;20425;-71
2022/05/21 13:16:33;;;;;;;3.83;2.00;;;23.50;93.10;;;;;;4993646;28;20424;-71
2022/05/21 13:19:48;;;;;;;4.00;1.97;;;23.40;94.20;;;;;;4994330;28;20835;-72
2022/05/21 13:22:33;;;;;;;4.20;2.37;;;23.10;94.00;;;;;;4942179;28;20823;-72
2022/05/21 13:25:12;;;;;;;4.33;2.33;;;23.30;93.30;;;;;;4994206;28;20851;-71
2022/05/21 13:27:44;;;;;;;7.53;2.27;;;23.50;93.60;;;;;;4994117;28;20471;-71
2022/05/21 13:30:16;;;;;;;5.00;2.47;;;23.70;96.50;;;;;;4994980;28;20950;-83
2022/05/21 13:32:41;;;;;;;4.40;1.80;;;23.90;93.10;;;;;;4999081;28;20426;-81
2022/05/21 13:35:32;;;;;;;5.10;1.80;;;23.90;88.50;;;;;;4997440;28;20523;-82
2022/05/21 13:38:00;;;;;;;4.00;2.47;;;24.00;87.20;;;;;;4998212;28;20204;-82